الصفحة الرئيسية
METAR-TAF:

METAR-TAF

مطار :

Georgetown, جزيرة أسينشين

دائرة عرض: 07-58S, خط طول: 014-24W, ارتفاع: 86 متر

مراقبة الطقس الحالي

تاريخ ووقت الإصدار 8ساعات و 50 دقيقة قبل الساعة 07:50UTC
ريح 12 عقدة من الشرق/الجنوب الشرقي
درجة الحرارة 26°درجة مئوية
الرطوبة 84%
ضغط 1014 hPa
الرؤية 10 كم أو أكثر
غيوم قليلة على ارتفاع 1800 قدم
غيوم مفككة على ارتفاع 5000 قدم

METAR: FHAW 230750Z 12012KT 9999 FEW018 BKN050 26/23 Q1014 BLU NOSIG

زمن: 16:40 (16:40 UTC)

توقعات

تاريخ ووقت الإصدار 12ساعات و 10 دقيقة قبل الساعة 04:30UTC
التوقعات صالحة من23 الساعة 06 UTC إلى 23 الساعة 24 UTC
ريح 13 عقدة من الجنوب الشرقي
الرؤية 10 كم أو أكثر
غيوم قليلة على ارتفاع 2200 قدم
نظرية الاحتمالات 30% :
مؤقت
من 23 الساعة 06 UTC إلى 23 الساعة 12 UTC
الرؤية: 6000 متر
غيوم متفرقة على ارتفاع 1200 قدم
زخات من الأمطار الخفيفة

TAF: FHAW 230430Z 2306/2324 14013KT 9999 FEW022 PROB30 TEMPO 2306/2312 6000 -SHRA SCT012

أرصاد الطقس والتوقعات من أكثر من 4000 مطار (تقارير الطقس للمطار METAR والتنبؤ بالطقس بالمطارTAF).

المحطات المتاحة هي النقط الصفراء والحمراء على الخريطة.

حرك المؤشر فوق النقطة لمعرفة اسم المحطة.

ثم انقر لمعرفة أرصاد وتوقعات الطقس.

لتغيير الخارطة: اضغط على الأزرار الخضراء مع رمز الصليب الأسود للتكبير. على الزر الأخضر مع شرطة للتصغير، أو على الأسهم الخضراء للخرائط المجاورة.


METAR-TAF: